createdAt,value
2023-05-11T00:00:07.036Z,677.00
2023-05-11T00:05:06.287Z,674.00
2023-05-11T00:10:07.570Z,672.00
2023-05-11T00:15:04.818Z,667.00
2023-05-11T00:20:05.117Z,673.00
2023-05-11T00:25:05.410Z,661.00
2023-05-11T00:30:03.675Z,655.00
2023-05-11T00:35:02.926Z,662.00
2023-05-11T00:40:02.190Z,656.00
2023-05-11T00:45:01.386Z,655.00
2023-05-11T00:49:59.572Z,657.00
2023-05-11T00:54:59.759Z,654.00
2023-05-11T00:59:57.950Z,641.00
2023-05-11T01:04:59.165Z,653.00
2023-05-11T01:09:56.386Z,659.00
2023-05-11T01:14:56.607Z,651.00
2023-05-11T01:19:55.830Z,646.00
2023-05-11T01:24:54.047Z,652.00
2023-05-11T01:29:54.330Z,653.00
2023-05-11T01:34:52.595Z,650.00
2023-05-11T01:39:51.847Z,652.00
2023-05-11T01:44:51.104Z,643.00
2023-05-11T01:49:50.359Z,642.00
2023-05-11T01:54:49.654Z,646.00
2023-05-11T01:59:50.943Z,651.00
2023-05-11T02:04:48.200Z,647.00
2023-05-11T02:09:47.456Z,642.00
2023-05-11T02:14:47.684Z,643.00
2023-05-11T02:19:45.936Z,633.00
2023-05-11T02:24:46.178Z,635.00
2023-05-11T02:29:45.433Z,636.00
2023-05-11T02:34:43.663Z,638.00
2023-05-11T02:39:42.903Z,639.00
2023-05-11T02:44:42.134Z,647.00
2023-05-11T02:49:41.396Z,635.00
2023-05-11T02:54:40.635Z,635.00
2023-05-11T02:59:39.875Z,634.00
2023-05-11T03:04:39.144Z,640.00
2023-05-11T03:09:38.383Z,634.00
2023-05-11T03:14:37.672Z,638.00
2023-05-11T03:19:37.956Z,633.00
2023-05-11T03:24:36.233Z,633.00
2023-05-11T03:29:36.489Z,632.00
2023-05-11T03:34:35.748Z,632.00
2023-05-11T03:39:33.990Z,633.00
2023-05-11T03:44:33.234Z,637.00
2023-05-11T03:49:33.469Z,628.00
2023-05-11T03:54:31.717Z,640.00
2023-05-11T03:59:31.954Z,635.00
2023-05-11T04:04:30.450Z,628.00
2023-05-11T04:09:30.389Z,622.00
2023-05-11T04:14:28.632Z,629.00
2023-05-11T04:19:28.882Z,634.00
2023-05-11T04:24:27.141Z,627.00
2023-05-11T04:29:27.385Z,624.00
2023-05-11T04:34:26.599Z,635.00
2023-05-11T04:39:25.846Z,633.00
2023-05-11T04:44:24.091Z,631.00
2023-05-11T04:49:24.343Z,612.00
2023-05-11T04:54:22.575Z,623.00
2023-05-11T04:59:22.815Z,635.00
2023-05-11T05:04:21.122Z,635.00
2023-05-11T05:09:19.176Z,634.00
2023-05-11T05:14:19.460Z,629.00
2023-05-11T05:19:18.710Z,628.00
2023-05-11T05:24:17.938Z,630.00
2023-05-11T05:29:17.209Z,633.00
2023-05-11T05:34:16.782Z,635.00
2023-05-11T05:39:16.635Z,627.00
2023-05-11T05:44:14.845Z,628.00
2023-05-11T05:49:15.062Z,619.00
2023-05-11T05:54:13.295Z,624.00
2023-05-11T05:59:12.544Z,624.00
2023-05-11T06:04:11.799Z,626.00
2023-05-11T06:09:13.050Z,629.00
2023-05-11T06:14:10.263Z,620.00
2023-05-11T06:19:10.519Z,617.00
2023-05-11T06:24:08.733Z,628.00
2023-05-11T06:29:09.005Z,627.00
2023-05-11T06:34:09.238Z,629.00
2023-05-11T06:39:06.506Z,626.00
2023-05-11T06:44:05.758Z,627.00
2023-05-11T06:49:05.043Z,648.00
2023-05-11T06:54:04.251Z,637.00
2023-05-11T06:59:04.531Z,646.00
2023-05-11T07:04:02.771Z,637.00
2023-05-11T07:09:01.973Z,633.00
2023-05-11T07:14:02.283Z,634.00
2023-05-11T07:19:00.616Z,632.00
2023-05-11T07:24:00.854Z,630.00
2023-05-11T07:28:59.019Z,633.00
2023-05-11T07:33:59.232Z,627.00
2023-05-11T07:38:58.483Z,634.00
2023-05-11T07:43:56.718Z,634.00
2023-05-11T07:49:11.336Z,636.00
2023-05-11T07:53:56.257Z,637.00
2023-05-11T07:58:54.507Z,630.00
2023-05-11T08:03:53.753Z,635.00
2023-05-11T08:08:54.004Z,633.00
2023-05-11T08:13:52.257Z,639.00
2023-05-11T08:18:52.555Z,632.00
2023-05-11T08:23:51.803Z,629.00
2023-05-11T08:28:50.060Z,623.00
2023-05-11T08:33:50.369Z,623.00
2023-05-11T08:38:49.603Z,619.00
2023-05-11T08:43:48.842Z,627.00
2023-05-11T08:48:47.048Z,624.00
2023-05-11T08:53:47.265Z,626.00
2023-05-11T08:58:47.468Z,625.00
2023-05-11T09:03:44.667Z,623.00
2023-05-11T09:08:44.916Z,617.00
2023-05-11T09:13:43.189Z,618.00
2023-05-11T09:18:42.470Z,618.00
2023-05-11T09:23:41.720Z,617.00
2023-05-11T09:33:40.124Z,620.00
2023-05-11T09:38:39.335Z,610.00
2023-05-11T09:43:39.575Z,615.00
2023-05-11T09:48:38.825Z,611.00
2023-05-11T09:53:38.061Z,615.00
2023-05-11T09:58:36.306Z,624.00
2023-05-11T10:03:36.575Z,617.00
2023-05-11T10:08:36.785Z,618.00
2023-05-11T10:13:35.017Z,607.00
2023-05-11T10:18:34.280Z,610.00
2023-05-11T10:23:33.511Z,611.00
2023-05-11T10:28:31.729Z,613.00
2023-05-11T10:33:31.958Z,606.00
2023-05-11T10:38:30.172Z,616.00
2023-05-11T10:43:28.385Z,619.00
2023-05-11T10:48:28.600Z,607.00
2023-05-11T10:53:27.913Z,611.00
2023-05-11T10:58:29.231Z,616.00
2023-05-11T11:03:26.526Z,610.00
2023-05-11T11:08:27.853Z,619.00
2023-05-11T11:13:25.158Z,610.00
2023-05-11T11:18:25.543Z,606.00
2023-05-11T11:23:24.671Z,619.00
2023-05-11T11:28:23.019Z,610.00
2023-05-11T11:33:22.324Z,606.00
2023-05-11T11:38:22.636Z,609.00
2023-05-11T11:43:20.965Z,609.00
2023-05-11T11:48:21.265Z,611.00
2023-05-11T11:53:19.566Z,611.00
2023-05-11T11:58:20.857Z,602.00
2023-05-11T12:03:18.227Z,607.00
2023-05-11T12:08:17.403Z,609.00
2023-05-11T12:13:17.518Z,606.00
2023-05-11T12:18:16.755Z,609.00
2023-05-11T12:23:15.983Z,609.00
2023-05-11T12:28:14.217Z,610.00
2023-05-11T12:33:14.477Z,620.00
2023-05-11T12:38:12.684Z,607.00
2023-05-11T12:43:11.908Z,606.00
2023-05-11T12:48:11.210Z,616.00
2023-05-11T12:53:11.431Z,603.00
2023-05-11T12:58:10.717Z,599.00
2023-05-11T13:03:10.122Z,612.00
2023-05-11T13:08:08.622Z,594.00
2023-05-11T13:13:07.384Z,604.00
2023-05-11T13:18:06.694Z,606.00
2023-05-11T13:23:06.916Z,611.00
2023-05-11T13:28:05.169Z,611.00
2023-05-11T13:33:04.459Z,596.00
2023-05-11T13:38:02.701Z,607.00
2023-05-11T13:43:02.957Z,599.00
2023-05-11T13:48:02.272Z,608.00
2023-05-11T13:53:01.527Z,613.00
2023-05-11T13:58:01.827Z,605.00
2023-05-11T14:03:01.127Z,608.00
2023-05-11T14:08:00.354Z,606.00
2023-05-11T14:12:58.589Z,613.00
2023-05-11T14:17:58.898Z,615.00
2023-05-11T14:22:59.128Z,618.00
2023-05-11T14:27:56.351Z,603.00
2023-05-11T14:32:57.745Z,618.00
2023-05-11T14:37:54.846Z,609.00
2023-05-11T14:42:55.096Z,612.00
2023-05-11T14:47:55.406Z,603.00
2023-05-11T14:52:53.708Z,602.00
2023-05-11T14:57:51.940Z,612.00
2023-05-11T15:02:52.258Z,604.00
2023-05-11T15:07:50.503Z,605.00
2023-05-11T15:12:49.765Z,615.00
2023-05-11T15:17:49.046Z,611.00
2023-05-11T15:22:48.309Z,602.00
2023-05-11T15:27:47.568Z,617.00
2023-05-11T15:32:47.888Z,603.00
2023-05-11T15:37:47.118Z,613.00
2023-05-11T15:42:46.331Z,613.00
2023-05-11T15:47:45.696Z,613.00
2023-05-11T15:52:43.734Z,611.00
2023-05-11T15:57:42.998Z,616.00
2023-05-11T16:02:42.317Z,612.00
2023-05-11T16:07:42.610Z,615.00
2023-05-11T16:12:40.915Z,616.00
2023-05-11T16:17:40.234Z,613.00
2023-05-11T16:22:39.502Z,623.00
2023-05-11T16:27:38.837Z,615.00
2023-05-11T16:32:38.315Z,614.00
2023-05-11T16:37:38.418Z,614.00
2023-05-11T16:42:37.805Z,612.00
2023-05-11T16:47:35.998Z,613.00
2023-05-11T16:52:37.380Z,614.00
2023-05-11T16:57:34.747Z,615.00
2023-05-11T17:02:34.103Z,619.00
2023-05-11T17:07:35.104Z,616.00
2023-05-11T17:12:32.446Z,618.00
2023-05-11T17:17:31.714Z,610.00
2023-05-11T17:22:32.943Z,608.00
2023-05-11T17:27:30.183Z,610.00
2023-05-11T17:32:29.608Z,606.00
2023-05-11T17:37:32.142Z,609.00
2023-05-11T17:42:27.964Z,614.00
2023-05-11T17:47:27.237Z,609.00
2023-05-11T17:52:27.362Z,606.00
2023-05-11T17:57:25.631Z,610.00
2023-05-11T18:02:32.276Z,615.00
2023-05-11T18:07:26.136Z,609.00
2023-05-11T18:12:24.462Z,605.00
2023-05-11T18:17:22.684Z,615.00
2023-05-11T18:22:21.939Z,615.00
2023-05-11T18:27:23.662Z,617.00
2023-05-11T18:32:20.529Z,615.00
2023-05-11T18:37:20.838Z,617.00
2023-05-11T18:42:20.147Z,619.00
2023-05-11T18:47:18.529Z,614.00
2023-05-11T18:52:17.634Z,609.00
2023-05-11T18:57:16.941Z,616.00
2023-05-11T19:02:16.261Z,610.00
2023-05-11T19:07:16.477Z,612.00
2023-05-11T19:12:14.872Z,619.00
2023-05-11T19:17:14.152Z,616.00
2023-05-11T19:22:13.438Z,610.00
2023-05-11T19:27:12.692Z,614.00
2023-05-11T19:32:14.030Z,620.00
2023-05-11T19:37:11.318Z,621.00
2023-05-11T19:42:12.647Z,623.00
2023-05-11T19:47:09.959Z,622.00
2023-05-11T19:52:10.195Z,618.00
2023-05-11T19:57:07.426Z,615.00
2023-05-11T20:02:07.663Z,622.00
2023-05-11T20:07:07.966Z,623.00
2023-05-11T20:12:07.206Z,626.00
2023-05-11T20:17:05.404Z,622.00
2023-05-11T20:22:04.635Z,625.00
2023-05-11T20:27:03.873Z,621.00
2023-05-11T20:32:07.404Z,619.00
2023-05-11T20:37:02.339Z,624.00
2023-05-11T20:42:02.539Z,628.00
2023-05-11T20:47:00.662Z,624.00
2023-05-11T20:51:59.690Z,628.00
2023-05-11T20:56:59.941Z,629.00
2023-05-11T21:01:58.192Z,637.00
2023-05-11T21:06:57.429Z,625.00
2023-05-11T21:11:56.675Z,625.00
2023-05-11T21:16:55.981Z,634.00
2023-05-11T21:21:55.225Z,635.00
2023-05-11T21:26:54.482Z,624.00
2023-05-11T21:31:54.734Z,627.00
2023-05-11T21:36:52.986Z,629.00
2023-05-11T21:41:52.222Z,631.00
2023-05-11T21:46:52.553Z,634.00
2023-05-11T21:51:50.593Z,627.00
2023-05-11T21:56:50.847Z,629.00
2023-05-11T22:01:50.154Z,629.00
2023-05-11T22:06:48.351Z,633.00
2023-05-11T22:11:46.580Z,639.00
2023-05-11T22:16:48.932Z,635.00
2023-05-11T22:21:47.125Z,638.00
2023-05-11T22:26:45.341Z,638.00
2023-05-11T22:31:46.188Z,632.00
2023-05-11T22:36:43.710Z,638.00
2023-05-11T22:41:44.068Z,637.00
2023-05-11T22:46:43.187Z,640.00
2023-05-11T22:51:41.427Z,644.00
2023-05-11T22:56:40.677Z,645.00
2023-05-11T23:01:40.015Z,642.00
2023-05-11T23:06:40.280Z,647.00
2023-05-11T23:11:39.512Z,639.00
2023-05-11T23:16:38.770Z,651.00
2023-05-11T23:21:38.030Z,642.00
2023-05-11T23:26:36.294Z,635.00
2023-05-11T23:31:35.444Z,646.00
2023-05-11T23:36:34.730Z,645.00
2023-05-11T23:41:35.953Z,636.00
2023-05-11T23:46:34.284Z,632.00
2023-05-11T23:51:33.608Z,638.00
2023-05-11T23:56:31.889Z,634.00
